Portada
METAR-TAF:

METAR-TAF

Aeroports :

Pago Pago, Illes Perifèriques Menors dels EUA

latitud: 14-20S, longitud: 170-43W, altitud: 3 m

Observació

L'informe es va fer fa 52 minuts, a les 03:50 UTC
Vent 11 kt del Nord amb ràfegues de 15 kt
Temperatura 29°C
Humitat 74%
Pressió 1004 hPa
Visibilitat: 19.3 km
Núvols disperses a una alçada de 1800 ft
Cel ennuvolat a una alçada de 4000 ft
Cel ennuvolat a una alçada de 10000 ft

METAR: NSTU 200350Z 35011G15KT 12SM SCT018 BKN040 BKN100 29/24 A2966 RMK SLP044 T02940244

Hora: 17:42 (04:42 UTC)

Pronòstic

L'informe es va fer fa 36 minuts, a les 04:06 UTC
Pronòstic vàlid del 20 a les 04 UTC al 20 a les 24 UTC
Vent 11 kt del Nord/Nord-Oest amb ràfegues de 15 kt
Visibilitat: 10 km
Núvols disperses a una alçada de 1800 ft
Cel ennuvolat a una alçada de 4000 ft
Cel ennuvolat a una alçada de 10000 ft

TAF: NSTU 200406Z 2004/2024 34011G15KT P6SM SCT018 BKN040 BKN100

Observacions i pronòstics meteorològics de més de 4000 aeroports (METAR i TAF).

Les estacions disponibles són els punts grocs i vermells al mapa.

Posi el ratolí al punt desitjat per veure el nom de l'estació.

Feu clic per veure les observacions i els pronòstics meteorològics.

Per canviar el mapa: feu clic els botons verds amb una creu de color negre per apropar; al botó verd amb un guió per allunyar la imatge; o en les fletxes verdes per a mapes adjacents.


METAR-TAF: